Time,TemperatureF,DewpointF,PressureIn,WindDirection,WindDirectionDegrees,WindSpeedMPH,WindSpeedGustMPH,Humidity,HourlyPrecipIn,Conditions,Clouds,dailyrainin,SoftwareType,DateUTC
2013-02-15 00:00:00,26.8,12.7,31.98,SW,229,0.0,0.0,55,0.00,NA,NA,-99.99,wxupload 3.4,2013-02-15 05:00:00,
2013-02-15 00:02:00,26.8,12.7,31.98,SW,229,0.0,0.0,55,0.00,NA,NA,-99.99,wxupload 3.4,2013-02-15 05:02:00,
2013-02-15 00:06:00,26.8,12.7,31.98,SW,229,0.0,0.0,55,0.00,NA,NA,-99.99,wxupload 3.4,2013-02-15 05:06:00,
2013-02-15 00:12:00,26.8,12.7,31.98,SW,229,0.0,0.0,55,0.00,NA,NA,-99.99,wxupload 3.4,2013-02-15 05:12:00,
2013-02-15 00:18:00,27.0,12.9,31.98,SW,229,0.0,0.0,55,0.00,NA,NA,-99.99,wxupload 3.4,2013-02-15 05:18:00,
2013-02-15 00:24:00,27.0,12.9,31.98,SW,229,0.0,0.0,55,0.00,NA,NA,-99.99,wxupload 3.4,2013-02-15 05:24:00,
2013-02-15 00:30:00,27.0,12.9,31.98,SW,229,0.0,0.0,55,0.00,NA,NA,-99.99,wxupload 3.4,2013-02-15 05:30:00,
2013-02-15 00:36:00,27.0,12.9,31.98,SW,229,0.0,0.0,55,0.00,NA,NA,-99.99,wxupload 3.4,2013-02-15 05:36:00,
2013-02-15 00:42:00,27.0,13.3,31.98,SW,229,0.0,0.0,56,0.00,NA,NA,-99.99,wxupload 3.4,2013-02-15 05:42:00,
2013-02-15 00:48:00,27.0,13.3,31.98,SW,229,0.0,0.0,56,0.00,NA,NA,-99.99,wxupload 3.4,2013-02-15 05:48:00,
2013-02-15 00:54:00,27.3,13.6,31.98,SW,229,0.0,0.0,56,0.00,NA,NA,-99.99,wxupload 3.4,2013-02-15 05:54:00,
2013-02-15 01:00:00,27.7,14.4,31.98,SW,229,0.0,0.0,57,0.00,NA,NA,-99.99,wxupload 3.4,2013-02-15 06:00:00,
2013-02-15 01:06:00,27.7,14.0,31.98,SW,229,0.0,0.0,56,0.00,NA,NA,-99.99,wxupload 3.4,2013-02-15 06:06:00,
2013-02-15 01:12:00,27.9,14.5,31.98,SW,229,0.0,0.0,57,0.00,NA,NA,-99.99,wxupload 3.4,2013-02-15 06:12:00,
2013-02-15 01:18:00,27.9,14.5,31.98,SW,229,0.0,0.0,57,0.00,NA,NA,-99.99,wxupload 3.4,2013-02-15 06:18:00,
2013-02-15 01:24:00,28.0,14.7,31.98,SW,229,0.0,0.0,57,0.00,NA,NA,-99.99,wxupload 3.4,2013-02-15 06:24:00,
2013-02-15 01:30:00,28.0,14.7,31.98,SW,229,0.0,0.0,57,0.00,NA,NA,-99.99,wxupload 3.4,2013-02-15 06:30:00,
2013-02-15 01:36:00,28.0,14.7,31.98,SW,229,0.0,0.0,57,0.00,NA,NA,-99.99,wxupload 3.4,2013-02-15 06:36:00,
2013-02-15 01:42:00,27.9,14.5,31.98,SW,229,0.0,0.0,57,0.00,NA,NA,-99.99,wxupload 3.4,2013-02-15 06:42:00,
2013-02-15 01:48:00,27.7,14.4,31.98,ESE,112,0.0,0.0,57,0.00,NA,NA,-99.99,wxupload 3.4,2013-02-15 06:48:00,
2013-02-15 01:54:00,27.7,14.8,31.98,ESE,112,0.0,0.0,58,0.00,NA,NA,-99.99,wxupload 3.4,2013-02-15 06:54:00,
2013-02-15 02:00:00,27.7,14.8,31.98,ESE,112,0.0,0.0,58,0.00,NA,NA,-99.99,wxupload 3.4,2013-02-15 07:00:00,
2013-02-15 02:06:00,27.5,14.6,31.98,ESE,112,0.0,0.0,58,0.00,NA,NA,-99.99,wxupload 3.4,2013-02-15 07:06:00,
2013-02-15 02:12:00,27.5,14.6,31.98,ESE,112,0.0,0.0,58,0.00,NA,NA,-99.99,wxupload 3.4,2013-02-15 07:12:00,
2013-02-15 02:18:00,27.5,14.6,31.98,ESE,112,0.0,0.0,58,0.00,NA,NA,-99.99,wxupload 3.4,2013-02-15 07:18:00,
2013-02-15 02:24:00,27.7,14.8,31.98,ESE,112,0.0,0.0,58,0.00,NA,NA,-99.99,wxupload 3.4,2013-02-15 07:24:00,
2013-02-15 02:30:00,27.7,14.8,31.98,ESE,112,0.0,0.0,58,0.00,NA,NA,-99.99,wxupload 3.4,2013-02-15 07:30:00,
2013-02-15 02:36:00,27.7,14.8,31.98,ESE,112,0.0,0.0,58,0.00,NA,NA,-99.99,wxupload 3.4,2013-02-15 07:36:00,
2013-02-15 02:42:00,27.5,14.6,31.98,ESE,112,0.0,0.0,58,0.00,NA,NA,-99.99,wxupload 3.4,2013-02-15 07:42:00,
2013-02-15 02:48:00,27.3,14.8,31.98,ESE,112,0.0,0.0,59,0.00,NA,NA,-99.99,wxupload 3.4,2013-02-15 07:48:00,
2013-02-15 02:54:00,27.1,14.6,31.98,ESE,112,0.0,0.0,59,0.00,NA,NA,-99.99,wxupload 3.4,2013-02-15 07:54:00,
2013-02-15 03:00:00,27.0,14.1,31.98,ESE,112,0.0,0.0,58,0.00,NA,NA,-99.99,wxupload 3.4,2013-02-15 08:00:00,
2013-02-15 03:06:00,27.0,14.5,31.98,ESE,112,0.0,0.0,59,0.00,NA,NA,-99.99,wxupload 3.4,2013-02-15 08:06:00,
2013-02-15 03:12:00,26.8,14.3,31.98,ESE,112,0.0,0.0,59,0.00,NA,NA,-99.99,wxupload 3.4,2013-02-15 08:12:00,
2013-02-15 03:18:00,26.8,14.3,31.98,ESE,112,0.0,0.0,59,0.00,NA,NA,-99.99,wxupload 3.4,2013-02-15 08:18:00,
2013-02-15 03:24:00,26.8,14.3,31.98,ESE,113,0.0,0.0,59,0.00,NA,NA,-99.99,wxupload 3.4,2013-02-15 08:24:00,
2013-02-15 03:30:00,26.8,14.3,31.98,ESE,113,0.0,0.0,59,0.00,NA,NA,-99.99,wxupload 3.4,2013-02-15 08:30:00,
2013-02-15 03:36:00,26.6,14.1,31.98,ESE,112,0.0,0.0,59,0.00,NA,NA,-99.99,wxupload 3.4,2013-02-15 08:36:00,
2013-02-15 03:42:00,26.8,14.3,31.98,ESE,112,0.0,0.0,59,0.00,NA,NA,-99.99,wxupload 3.4,2013-02-15 08:42:00,
2013-02-15 03:48:00,27.0,14.9,31.98,ESE,112,0.0,0.0,60,0.00,NA,NA,-99.99,wxupload 3.4,2013-02-15 08:48:00,
2013-02-15 03:54:00,27.0,14.9,31.98,ESE,112,0.0,0.0,60,0.00,NA,NA,-99.99,wxupload 3.4,2013-02-15 08:54:00,
2013-02-15 04:00:00,27.3,15.2,31.98,ESE,112,0.0,0.0,60,0.00,NA,NA,-99.99,wxupload 3.4,2013-02-15 09:00:00,
2013-02-15 04:06:00,27.5,15.4,31.98,ESE,112,0.0,0.0,60,0.00,NA,NA,-99.99,wxupload 3.4,2013-02-15 09:06:00,
2013-02-15 04:12:00,27.7,15.5,31.98,ESE,112,0.0,0.0,60,0.00,NA,NA,-99.99,wxupload 3.4,2013-02-15 09:12:00,
2013-02-15 04:18:00,27.5,15.4,31.98,ESE,112,0.0,0.0,60,0.00,NA,NA,-99.99,wxupload 3.4,2013-02-15 09:18:00,
2013-02-15 04:24:00,27.3,15.2,31.98,ESE,112,0.0,0.0,60,0.00,NA,NA,-99.99,wxupload 3.4,2013-02-15 09:24:00,
2013-02-15 04:30:00,27.1,15.0,31.98,ESE,112,0.0,0.0,60,0.00,NA,NA,-99.99,wxupload 3.4,2013-02-15 09:30:00,
2013-02-15 04:36:00,27.0,14.9,31.98,ESE,112,0.0,0.0,60,0.00,NA,NA,-99.99,wxupload 3.4,2013-02-15 09:36:00,
2013-02-15 04:42:00,27.0,14.9,31.98,ESE,112,0.0,0.0,60,0.00,NA,NA,-99.99,wxupload 3.4,2013-02-15 09:42:00,
2013-02-15 04:48:00,26.8,14.7,31.98,SE,137,0.0,0.0,60,0.00,NA,NA,-99.99,wxupload 3.4,2013-02-15 09:48:00,
2013-02-15 04:54:00,26.6,14.9,31.98,SE,137,0.0,0.0,61,0.00,NA,NA,-99.99,wxupload 3.4,2013-02-15 09:54:00,
2013-02-15 05:00:00,26.6,14.9,31.98,SE,137,0.0,0.0,61,0.00,NA,NA,-99.99,wxupload 3.4,2013-02-15 10:00:00,
2013-02-15 05:06:00,26.6,14.9,31.98,SE,137,0.0,0.0,61,0.00,NA,NA,-99.99,wxupload 3.4,2013-02-15 10:06:00,
2013-02-15 05:12:00,26.6,14.9,31.98,SE,137,0.0,0.0,61,0.00,NA,NA,-99.99,wxupload 3.4,2013-02-15 10:12:00,
2013-02-15 05:18:00,26.4,14.7,31.98,SE,136,0.0,0.0,61,0.00,NA,NA,-99.99,wxupload 3.4,2013-02-15 10:18:00,
2013-02-15 05:24:00,26.4,15.1,31.98,SSE,163,0.0,0.0,62,0.00,NA,NA,-99.99,wxupload 3.4,2013-02-15 10:24:00,
2013-02-15 05:30:00,26.4,14.7,31.98,SSE,163,0.0,0.0,61,0.00,NA,NA,-99.99,wxupload 3.4,2013-02-15 10:30:00,
2013-02-15 05:36:00,26.4,14.7,31.98,SSE,163,0.0,0.0,61,0.00,NA,NA,-99.99,wxupload 3.4,2013-02-15 10:36:00,
2013-02-15 05:42:00,26.2,14.6,31.98,SSE,163,0.0,0.0,61,0.00,NA,NA,-99.99,wxupload 3.4,2013-02-15 10:42:00,
2013-02-15 05:48:00,26.4,15.1,32.01,SSE,163,0.0,0.0,62,0.00,NA,NA,-99.99,wxupload 3.4,2013-02-15 10:48:00,
2013-02-15 05:54:00,26.2,14.6,32.01,SSE,163,0.0,0.0,61,0.00,NA,NA,-99.99,wxupload 3.4,2013-02-15 10:54:00,
2013-02-15 06:00:00,26.1,14.4,32.01,SSE,163,0.0,0.0,61,0.00,NA,NA,-99.99,wxupload 3.4,2013-02-15 11:00:00,
2013-02-15 06:06:00,26.1,14.4,32.01,SSE,163,0.0,0.0,61,0.00,NA,NA,-99.99,wxupload 3.4,2013-02-15 11:06:00,
2013-02-15 06:12:00,25.9,14.2,32.01,SSE,163,0.0,0.0,61,0.00,NA,NA,-99.99,wxupload 3.4,2013-02-15 11:12:00,
2013-02-15 06:18:00,25.5,13.9,32.01,SSE,163,0.0,0.0,61,0.00,NA,NA,-99.99,wxupload 3.4,2013-02-15 11:18:00,
2013-02-15 06:24:00,25.3,13.7,32.01,SSE,163,0.0,0.0,61,0.00,NA,NA,-99.99,wxupload 3.4,2013-02-15 11:24:00,
2013-02-15 06:30:00,25.2,13.5,32.01,SSE,163,0.0,0.0,61,0.00,NA,NA,-99.99,wxupload 3.4,2013-02-15 11:30:00,
2013-02-15 06:36:00,25.2,13.9,32.01,SSE,163,0.0,0.0,62,0.00,NA,NA,-99.99,wxupload 3.4,2013-02-15 11:36:00,
2013-02-15 06:42:00,25.2,13.9,32.01,SSE,163,0.0,0.0,62,0.00,NA,NA,-99.99,wxupload 3.4,2013-02-15 11:42:00,
2013-02-15 06:48:00,25.0,13.7,32.01,SSE,163,0.0,0.0,62,0.00,NA,NA,-99.99,wxupload 3.4,2013-02-15 11:48:00,
2013-02-15 06:54:00,24.8,13.6,32.01,SSE,163,0.0,0.0,62,0.00,NA,NA,-99.99,wxupload 3.4,2013-02-15 11:54:00,
2013-02-15 07:00:00,24.8,13.6,32.01,SSE,163,0.0,0.0,62,0.00,NA,NA,-99.99,wxupload 3.4,2013-02-15 12:00:00,
2013-02-15 07:06:00,24.6,13.4,32.01,SSE,163,0.0,0.0,62,0.00,NA,NA,-99.99,wxupload 3.4,2013-02-15 12:06:00,
2013-02-15 07:12:00,24.6,13.4,32.01,SSE,163,0.0,0.0,62,0.00,NA,NA,-99.99,wxupload 3.4,2013-02-15 12:12:00,
2013-02-15 07:18:00,24.6,13.8,32.01,SSE,163,0.0,0.0,63,0.00,NA,NA,-99.99,wxupload 3.4,2013-02-15 12:18:00,
2013-02-15 07:24:00,24.8,13.9,32.01,SSE,163,0.0,0.0,63,0.00,NA,NA,-99.99,wxupload 3.4,2013-02-15 12:24:00,
2013-02-15 07:30:00,25.0,14.1,32.01,SSE,163,0.0,0.0,63,0.00,NA,NA,-99.99,wxupload 3.4,2013-02-15 12:30:00,
2013-02-15 07:36:00,25.2,14.3,32.01,SSE,163,0.0,0.0,63,0.00,NA,NA,-99.99,wxupload 3.4,2013-02-15 12:36:00,
2013-02-15 07:42:00,25.3,14.8,32.01,SSE,163,0.0,0.0,64,0.00,NA,NA,-99.99,wxupload 3.4,2013-02-15 12:42:00,
2013-02-15 07:48:00,25.7,14.8,32.01,SSE,163,0.0,0.0,63,0.00,NA,NA,-99.99,wxupload 3.4,2013-02-15 12:48:00,
2013-02-15 07:54:00,25.9,15.0,32.01,SSE,162,0.0,0.0,63,0.00,NA,NA,-99.99,wxupload 3.4,2013-02-15 12:54:00,
2013-02-15 08:00:00,26.1,15.5,32.01,SSE,162,0.0,0.0,64,0.00,NA,NA,-99.99,wxupload 3.4,2013-02-15 13:00:00,
2013-02-15 08:06:00,26.4,15.8,32.04,SSE,162,0.0,0.0,64,0.00,NA,NA,-99.99,wxupload 3.4,2013-02-15 13:06:00,
2013-02-15 08:12:00,26.6,16.4,32.04,SSE,162,0.0,0.0,65,0.00,NA,NA,-99.99,wxupload 3.4,2013-02-15 13:12:00,
2013-02-15 08:18:00,27.1,16.9,32.04,SSE,162,0.0,0.0,65,0.00,NA,NA,-99.99,wxupload 3.4,2013-02-15 13:18:00,
2013-02-15 08:24:00,27.5,17.2,32.04,SSE,161,0.0,0.0,65,0.00,NA,NA,-99.99,wxupload 3.4,2013-02-15 13:24:00,
2013-02-15 08:30:00,27.9,17.9,32.04,SSE,162,0.0,0.0,66,0.00,NA,NA,-99.99,wxupload 3.4,2013-02-15 13:30:00,
2013-02-15 08:36:00,28.6,18.6,32.04,SSE,162,0.0,0.0,66,0.00,NA,NA,-99.99,wxupload 3.4,2013-02-15 13:36:00,
2013-02-15 08:42:00,29.3,19.7,32.04,SSE,163,0.0,0.0,67,0.00,NA,NA,-99.99,wxupload 3.4,2013-02-15 13:42:00,
2013-02-15 08:48:00,30.4,20.7,32.04,SSE,162,0.0,0.0,67,0.00,NA,NA,-99.99,wxupload 3.4,2013-02-15 13:48:00,
2013-02-15 08:54:00,31.5,22.1,32.04,SSE,162,0.0,0.0,68,0.00,NA,NA,-99.99,wxupload 3.4,2013-02-15 13:54:00,
2013-02-15 09:00:00,32.4,23.3,32.04,SSE,162,0.0,0.0,69,0.00,NA,NA,-99.99,wxupload 3.4,2013-02-15 14:00:00,
2013-02-15 09:06:00,33.3,24.5,32.04,SSE,162,0.0,0.0,70,0.00,NA,NA,-99.99,wxupload 3.4,2013-02-15 14:06:00,
2013-02-15 09:12:00,34.2,25.4,32.04,SSE,162,0.0,0.0,70,0.00,NA,NA,-99.99,wxupload 3.4,2013-02-15 14:12:00,
2013-02-15 09:18:00,35.1,26.3,32.04,SSE,162,0.0,0.0,70,0.00,NA,NA,-99.99,wxupload 3.4,2013-02-15 14:18:00,
2013-02-15 09:24:00,36.1,27.3,32.04,SSE,162,0.0,0.0,70,0.00,NA,NA,-99.99,wxupload 3.4,2013-02-15 14:24:00,
2013-02-15 09:30:00,36.5,27.3,32.04,SSE,162,0.0,0.0,69,0.00,NA,NA,-99.99,wxupload 3.4,2013-02-15 14:30:00,
2013-02-15 09:36:00,36.9,27.7,32.04,SSE,162,0.0,0.0,69,0.00,NA,NA,-99.99,wxupload 3.4,2013-02-15 14:36:00,
2013-02-15 09:42:00,37.6,28.3,32.04,SSE,162,0.0,0.0,69,0.00,NA,NA,-99.99,wxupload 3.4,2013-02-15 14:42:00,
2013-02-15 09:48:00,38.5,29.2,32.04,SSE,162,0.0,0.0,69,0.00,NA,NA,-99.99,wxupload 3.4,2013-02-15 14:48:00,
2013-02-15 09:54:00,38.7,29.4,32.04,SSE,162,0.0,0.0,69,0.00,NA,NA,-99.99,wxupload 3.4,2013-02-15 14:54:00,
2013-02-15 10:00:00,39.4,29.7,32.04,ESE,106,0.0,3.0,68,0.00,NA,NA,-99.99,wxupload 3.4,2013-02-15 15:00:00,
2013-02-15 10:06:00,39.9,29.9,32.01,ESE,120,0.0,0.0,67,0.00,NA,NA,-99.99,wxupload 3.4,2013-02-15 15:06:00,
2013-02-15 10:12:00,40.3,30.2,32.01,ESE,120,0.0,0.0,67,0.00,NA,NA,-99.99,wxupload 3.4,2013-02-15 15:12:00,
2013-02-15 10:18:00,40.3,29.9,32.01,ESE,120,0.0,0.0,66,0.00,NA,NA,-99.99,wxupload 3.4,2013-02-15 15:18:00,
2013-02-15 10:24:00,40.5,30.0,32.01,ESE,121,0.0,0.0,66,0.00,NA,NA,-99.99,wxupload 3.4,2013-02-15 15:24:00,
2013-02-15 10:30:00,41.0,30.5,32.01,SE,128,0.0,0.0,66,0.00,NA,NA,-99.99,wxupload 3.4,2013-02-15 15:30:00,
2013-02-15 10:36:00,41.5,31.1,32.01,ESE,113,0.0,0.0,66,0.00,NA,NA,-99.99,wxupload 3.4,2013-02-15 15:36:00,
2013-02-15 10:42:00,42.3,31.4,32.01,ESE,123,0.0,0.0,65,0.00,NA,NA,-99.99,wxupload 3.4,2013-02-15 15:42:00,
2013-02-15 10:48:00,43.5,31.0,32.01,ENE,78,0.0,0.0,61,0.00,NA,NA,-99.99,wxupload 3.4,2013-02-15 15:48:00,
2013-02-15 10:54:00,44.2,29.1,32.01,North,1,0.0,0.0,55,0.00,NA,NA,-99.99,wxupload 3.4,2013-02-15 15:54:00,
2013-02-15 11:00:00,45.5,26.5,32.01,SW,233,0.0,4.0,47,0.00,NA,NA,-99.99,wxupload 3.4,2013-02-15 16:00:00,
2013-02-15 11:06:00,46.4,25.2,32.01,WNW,294,0.0,3.0,43,0.00,NA,NA,-99.99,wxupload 3.4,2013-02-15 16:06:00,
2013-02-15 11:12:00,46.6,24.8,32.01,WNW,287,0.0,3.0,42,0.00,NA,NA,-99.99,wxupload 3.4,2013-02-15 16:12:00,
2013-02-15 11:18:00,46.6,25.3,32.01,SSW,207,0.0,0.0,43,0.00,NA,NA,-99.99,wxupload 3.4,2013-02-15 16:18:00,
2013-02-15 11:24:00,47.3,23.0,32.01,West,279,0.0,0.0,38,0.00,NA,NA,-99.99,wxupload 3.4,2013-02-15 16:24:00,
2013-02-15 11:30:00,48.4,24.0,32.01,West,269,0.0,0.0,38,0.00,NA,NA,-99.99,wxupload 3.4,2013-02-15 16:30:00,
2013-02-15 11:36:00,49.8,25.3,31.98,WNW,293,0.0,0.0,38,0.00,NA,NA,-99.99,wxupload 3.4,2013-02-15 16:36:00,
2013-02-15 11:42:00,50.0,22.8,31.98,West,274,0.0,0.0,34,0.00,NA,NA,-99.99,wxupload 3.4,2013-02-15 16:42:00,
2013-02-15 11:48:00,50.2,23.0,31.98,SW,223,0.0,0.0,34,0.00,NA,NA,-99.99,wxupload 3.4,2013-02-15 16:48:00,
2013-02-15 11:54:00,50.7,24.8,31.98,South,182,0.0,0.0,36,0.00,NA,NA,-99.99,wxupload 3.4,2013-02-15 16:54:00,
2013-02-15 12:00:00,51.6,24.9,31.98,WSW,243,0.0,0.0,35,0.00,NA,NA,-99.99,wxupload 3.4,2013-02-15 17:00:00,
2013-02-15 12:06:00,52.0,22.4,31.98,NNW,341,2.0,2.0,31,0.00,NA,NA,-99.99,wxupload 3.4,2013-02-15 17:06:00,
2013-02-15 12:12:00,52.3,22.7,31.98,SW,219,0.0,0.0,31,0.00,NA,NA,-99.99,wxupload 3.4,2013-02-15 17:12:00,
2013-02-15 12:18:00,52.9,21.6,31.98,NW,318,0.0,3.0,29,0.00,NA,NA,-99.99,wxupload 3.4,2013-02-15 17:18:00,
2013-02-15 12:24:00,52.9,21.6,31.98,SSW,199,0.0,0.0,29,0.00,NA,NA,-99.99,wxupload 3.4,2013-02-15 17:24:00,
2013-02-15 12:30:00,52.9,21.6,31.98,WNW,292,0.0,0.0,29,0.00,NA,NA,-99.99,wxupload 3.4,2013-02-15 17:30:00,
2013-02-15 12:36:00,52.9,21.6,31.95,North,357,0.0,0.0,29,0.00,NA,NA,-99.99,wxupload 3.4,2013-02-15 17:36:00,
2013-02-15 12:42:00,52.5,22.1,31.95,South,179,0.0,0.0,30,0.00,NA,NA,-99.99,wxupload 3.4,2013-02-15 17:42:00,
2013-02-15 12:48:00,52.0,20.8,31.95,West,280,0.0,4.0,29,0.00,NA,NA,-99.99,wxupload 3.4,2013-02-15 17:48:00,
2013-02-15 12:54:00,51.6,21.3,31.95,South,186,0.0,0.0,30,0.00,NA,NA,-99.99,wxupload 3.4,2013-02-15 17:54:00,
2013-02-15 13:00:00,51.6,22.0,31.95,West,262,0.0,0.0,31,0.00,NA,NA,-99.99,wxupload 3.4,2013-02-15 18:00:00,
2013-02-15 13:06:00,51.4,21.9,31.95,South,188,3.0,4.0,31,0.00,NA,NA,-99.99,wxupload 3.4,2013-02-15 18:06:00,
2013-02-15 13:12:00,51.1,21.6,31.95,SE,146,3.0,4.0,31,0.00,NA,NA,-99.99,wxupload 3.4,2013-02-15 18:12:00,
2013-02-15 13:18:00,50.7,21.2,31.95,SSW,212,0.0,0.0,31,0.00,NA,NA,-99.99,wxupload 3.4,2013-02-15 18:18:00,
2013-02-15 13:24:00,50.4,21.7,31.95,SSW,211,0.0,0.0,32,0.00,NA,NA,-99.99,wxupload 3.4,2013-02-15 18:24:00,
2013-02-15 13:30:00,50.2,21.5,31.95,SSW,211,0.0,0.0,32,0.00,NA,NA,-99.99,wxupload 3.4,2013-02-15 18:30:00,
2013-02-15 13:36:00,50.0,21.3,31.95,SSW,211,0.0,0.0,32,0.00,NA,NA,-99.99,wxupload 3.4,2013-02-15 18:36:00,
2013-02-15 13:42:00,49.6,21.8,31.95,SSW,211,0.0,0.0,33,0.00,NA,NA,-99.99,wxupload 3.4,2013-02-15 18:42:00,
2013-02-15 13:48:00,49.3,22.1,31.95,SSW,211,0.0,0.0,34,0.00,NA,NA,-99.99,wxupload 3.4,2013-02-15 18:48:00,
2013-02-15 13:54:00,49.5,20.9,31.95,NE,53,0.0,0.0,32,0.00,NA,NA,-99.99,wxupload 3.4,2013-02-15 18:54:00,
2013-02-15 14:00:00,49.8,20.4,31.95,North,4,0.0,0.0,31,0.00,NA,NA,-99.99,wxupload 3.4,2013-02-15 19:00:00,
2013-02-15 14:06:00,50.4,20.1,31.95,North,4,0.0,3.0,30,0.00,NA,NA,-99.99,wxupload 3.4,2013-02-15 19:06:00,
2013-02-15 14:12:00,50.4,20.1,31.95,NW,308,0.0,0.0,30,0.00,NA,NA,-99.99,wxupload 3.4,2013-02-15 19:12:00,
2013-02-15 14:18:00,50.5,19.5,31.95,NNE,29,3.0,5.0,29,0.00,NA,NA,-99.99,wxupload 3.4,2013-02-15 19:18:00,
2013-02-15 14:24:00,50.2,18.4,31.95,NNE,16,2.0,4.0,28,0.00,NA,NA,-99.99,wxupload 3.4,2013-02-15 19:24:00,
2013-02-15 14:30:00,50.0,19.0,31.95,NW,312,2.0,3.0,29,0.00,NA,NA,-99.99,wxupload 3.4,2013-02-15 19:30:00,
2013-02-15 14:36:00,49.5,18.5,31.95,WNW,288,0.0,0.0,29,0.00,NA,NA,-99.99,wxupload 3.4,2013-02-15 19:36:00,
2013-02-15 14:42:00,49.3,19.2,31.95,North,0,0.0,0.0,30,0.00,NA,NA,-99.99,wxupload 3.4,2013-02-15 19:42:00,
2013-02-15 14:48:00,49.3,19.2,31.95,North,0,0.0,0.0,30,0.00,NA,NA,-99.99,wxupload 3.4,2013-02-15 19:48:00,
2013-02-15 14:54:00,48.9,20.4,31.95,NE,34,0.0,4.0,32,0.00,NA,NA,-99.99,wxupload 3.4,2013-02-15 19:54:00,
2013-02-15 15:00:00,48.0,21.7,31.95,NNW,334,0.0,0.0,35,0.00,NA,NA,-99.99,wxupload 3.4,2013-02-15 20:00:00,
2013-02-15 15:06:00,47.3,20.4,31.95,NNE,33,0.0,5.0,34,0.00,NA,NA,-99.99,wxupload 3.4,2013-02-15 20:06:00,
2013-02-15 15:12:00,46.8,19.9,31.95,North,353,3.0,0.0,34,0.00,NA,NA,-99.99,wxupload 3.4,2013-02-15 20:12:00,
2013-02-15 15:18:00,46.2,20.1,31.98,NNW,341,3.0,7.0,35,0.00,NA,NA,-99.99,wxupload 3.4,2013-02-15 20:18:00,
2013-02-15 15:24:00,45.9,21.7,31.98,NNW,335,0.0,2.0,38,0.00,NA,NA,-99.99,wxupload 3.4,2013-02-15 20:24:00,
2013-02-15 15:30:00,45.0,21.5,31.98,NNW,339,0.0,0.0,39,0.00,NA,NA,-99.99,wxupload 3.4,2013-02-15 20:30:00,
2013-02-15 15:36:00,44.2,20.9,31.95,NW,322,0.0,4.0,39,0.00,NA,NA,-99.99,wxupload 3.4,2013-02-15 20:36:00,
2013-02-15 15:42:00,43.7,19.8,31.95,NNE,29,0.0,3.0,38,0.00,NA,NA,-99.99,wxupload 3.4,2013-02-15 20:42:00,
2013-02-15 15:48:00,43.2,19.3,31.98,NNE,15,0.0,3.0,38,0.00,NA,NA,-99.99,wxupload 3.4,2013-02-15 20:48:00,
2013-02-15 15:54:00,42.8,20.1,31.98,North,349,3.0,5.0,40,0.00,NA,NA,-99.99,wxupload 3.4,2013-02-15 20:54:00,
2013-02-15 16:00:00,42.4,21.5,31.98,NW,325,0.0,4.0,43,0.00,NA,NA,-99.99,wxupload 3.4,2013-02-15 21:00:00,
2013-02-15 16:06:00,41.9,21.6,31.98,NNE,17,0.0,2.0,44,0.00,NA,NA,-99.99,wxupload 3.4,2013-02-15 21:06:00,
2013-02-15 16:12:00,41.7,20.9,31.98,NE,42,0.0,4.0,43,0.00,NA,NA,-99.99,wxupload 3.4,2013-02-15 21:12:00,
2013-02-15 16:18:00,41.2,20.4,31.98,NNW,346,4.0,8.0,43,0.00,NA,NA,-99.99,wxupload 3.4,2013-02-15 21:18:00,
2013-02-15 16:24:00,41.0,21.3,31.98,North,10,0.0,4.0,45,0.00,NA,NA,-99.99,wxupload 3.4,2013-02-15 21:24:00,
2013-02-15 16:30:00,40.8,21.6,31.98,SE,130,0.0,0.0,46,0.00,NA,NA,-99.99,wxupload 3.4,2013-02-15 21:30:00,
2013-02-15 16:36:00,40.8,21.6,31.98,NNE,29,0.0,0.0,46,0.00,NA,NA,-99.99,wxupload 3.4,2013-02-15 21:36:00,
2013-02-15 16:42:00,40.6,20.9,31.98,NE,36,0.0,3.0,45,0.00,NA,NA,-99.99,wxupload 3.4,2013-02-15 21:42:00,
2013-02-15 16:48:00,40.6,20.4,31.98,NNW,348,0.0,0.0,44,0.00,NA,NA,-99.99,wxupload 3.4,2013-02-15 21:48:00,
2013-02-15 16:54:00,40.5,20.2,31.98,NE,47,0.0,0.0,44,0.00,NA,NA,-99.99,wxupload 3.4,2013-02-15 21:54:00,
2013-02-15 17:00:00,40.5,20.2,31.98,NE,52,0.0,0.0,44,0.00,NA,NA,-99.99,wxupload 3.4,2013-02-15 22:00:00,
2013-02-15 17:06:00,40.3,20.1,31.98,East,85,0.0,0.0,44,0.00,NA,NA,-99.99,wxupload 3.4,2013-02-15 22:06:00,
2013-02-15 17:12:00,40.1,19.9,31.98,North,0,0.0,5.0,44,0.00,NA,NA,-99.99,wxupload 3.4,2013-02-15 22:12:00,
2013-02-15 17:18:00,40.1,19.4,31.98,NW,318,3.0,6.0,43,0.00,NA,NA,-99.99,wxupload 3.4,2013-02-15 22:18:00,
2013-02-15 17:24:00,39.9,20.3,31.98,WNW,303,0.0,3.0,45,0.00,NA,NA,-99.99,wxupload 3.4,2013-02-15 22:24:00,
2013-02-15 17:30:00,39.9,20.8,31.98,NNE,32,0.0,2.0,46,0.00,NA,NA,-99.99,wxupload 3.4,2013-02-15 22:30:00,
2013-02-15 17:36:00,39.4,21.8,31.98,NW,314,4.0,6.0,49,0.00,NA,NA,-99.99,wxupload 3.4,2013-02-15 22:36:00,
2013-02-15 17:42:00,38.8,22.7,31.98,NNE,30,3.0,9.0,52,0.00,NA,NA,-99.99,wxupload 3.4,2013-02-15 22:42:00,
2013-02-15 17:48:00,38.3,23.5,32.01,NNE,33,3.0,4.0,55,0.00,NA,NA,-99.99,wxupload 3.4,2013-02-15 22:48:00,
2013-02-15 17:54:00,37.8,23.9,32.01,NW,319,0.0,0.0,57,0.00,NA,NA,-99.99,wxupload 3.4,2013-02-15 22:54:00,
2013-02-15 18:00:00,37.4,24.8,32.01,North,353,0.0,0.0,60,0.00,NA,NA,-99.99,wxupload 3.4,2013-02-15 23:00:00,
2013-02-15 18:06:00,37.2,25.4,32.01,NE,35,2.0,4.0,62,0.00,NA,NA,-99.99,wxupload 3.4,2013-02-15 23:06:00,
2013-02-15 18:12:00,37.0,25.2,32.01,North,0,0.0,0.0,62,0.00,NA,NA,-99.99,wxupload 3.4,2013-02-15 23:12:00,
2013-02-15 18:18:00,37.0,25.6,32.01,ENE,72,0.0,0.0,63,0.00,NA,NA,-99.99,wxupload 3.4,2013-02-15 23:18:00,
2013-02-15 18:24:00,37.0,26.4,32.01,NE,50,0.0,0.0,65,0.00,NA,NA,-99.99,wxupload 3.4,2013-02-15 23:24:00,
2013-02-15 18:30:00,36.9,27.3,32.01,NE,36,0.0,4.0,68,0.00,NA,NA,-99.99,wxupload 3.4,2013-02-15 23:30:00,
2013-02-15 18:36:00,37.0,27.5,32.01,North,357,0.0,0.0,68,0.00,NA,NA,-99.99,wxupload 3.4,2013-02-15 23:36:00,
2013-02-15 18:42:00,37.0,27.5,32.01,NNW,328,0.0,0.0,68,0.00,NA,NA,-99.99,wxupload 3.4,2013-02-15 23:42:00,
2013-02-15 18:48:00,37.0,27.8,32.01,NNE,23,0.0,0.0,69,0.00,NA,NA,-99.99,wxupload 3.4,2013-02-15 23:48:00,
2013-02-15 18:54:00,37.0,27.8,32.01,NNE,17,0.0,0.0,69,0.00,NA,NA,-99.99,wxupload 3.4,2013-02-15 23:54:00,
2013-02-15 19:00:00,37.0,27.5,32.01,North,5,0.0,0.0,68,0.00,NA,NA,-99.99,wxupload 3.4,2013-02-16 00:00:00,
2013-02-15 19:06:00,37.0,27.5,32.01,NNE,17,0.0,0.0,68,0.00,NA,NA,-99.99,wxupload 3.4,2013-02-16 00:06:00,
2013-02-15 19:12:00,37.2,27.6,32.01,NE,37,0.0,0.0,68,0.00,NA,NA,-99.99,wxupload 3.4,2013-02-16 00:12:00,
2013-02-15 19:18:00,37.2,27.3,32.01,WNW,295,0.0,0.0,67,0.00,NA,NA,-99.99,wxupload 3.4,2013-02-16 00:18:00,
2013-02-15 19:24:00,37.2,27.3,32.01,SE,137,0.0,0.0,67,0.00,NA,NA,-99.99,wxupload 3.4,2013-02-16 00:24:00,
2013-02-15 19:30:00,37.2,27.3,32.01,SE,126,0.0,0.0,67,0.00,NA,NA,-99.99,wxupload 3.4,2013-02-16 00:30:00,
2013-02-15 19:36:00,37.2,27.3,32.01,SSE,147,0.0,0.0,67,0.00,NA,NA,-99.99,wxupload 3.4,2013-02-16 00:36:00,
2013-02-15 19:42:00,37.0,27.1,32.01,SSE,147,0.0,0.0,67,0.00,NA,NA,-99.99,wxupload 3.4,2013-02-16 00:42:00,
2013-02-15 19:48:00,37.0,27.1,32.01,SSE,147,0.0,0.0,67,0.00,NA,NA,-99.99,wxupload 3.4,2013-02-16 00:48:00,
2013-02-15 19:54:00,37.0,27.1,32.01,SSE,147,0.0,0.0,67,0.00,NA,NA,-99.99,wxupload 3.4,2013-02-16 00:54:00,
2013-02-15 20:00:00,37.0,27.1,32.01,SSE,147,0.0,0.0,67,0.00,NA,NA,-99.99,wxupload 3.4,2013-02-16 01:00:00,
2013-02-15 20:06:00,37.0,27.1,32.01,SSE,147,0.0,0.0,67,0.00,NA,NA,-99.99,wxupload 3.4,2013-02-16 01:06:00,
2013-02-15 20:12:00,36.9,26.6,32.01,SSE,147,0.0,0.0,66,0.00,NA,NA,-99.99,wxupload 3.4,2013-02-16 01:12:00,
2013-02-15 20:18:00,36.9,26.6,32.01,SSE,147,0.0,0.0,66,0.00,NA,NA,-99.99,wxupload 3.4,2013-02-16 01:18:00,
2013-02-15 20:24:00,36.9,26.6,32.01,WNW,285,0.0,0.0,66,0.00,NA,NA,-99.99,wxupload 3.4,2013-02-16 01:24:00,
2013-02-15 20:30:00,36.7,26.8,32.01,WNW,285,0.0,0.0,67,0.00,NA,NA,-99.99,wxupload 3.4,2013-02-16 01:30:00,
2013-02-15 20:36:00,36.7,26.8,32.01,WNW,285,0.0,0.0,67,0.00,NA,NA,-99.99,wxupload 3.4,2013-02-16 01:36:00,
2013-02-15 20:42:00,36.7,26.8,32.01,WNW,285,0.0,0.0,67,0.00,NA,NA,-99.99,wxupload 3.4,2013-02-16 01:42:00,
2013-02-15 20:48:00,36.7,26.8,32.01,WNW,285,0.0,0.0,67,0.00,NA,NA,-99.99,wxupload 3.4,2013-02-16 01:48:00,
2013-02-15 20:54:00,36.5,26.6,32.01,NE,36,0.0,0.0,67,0.00,NA,NA,-99.99,wxupload 3.4,2013-02-16 01:54:00,
2013-02-15 21:00:00,36.5,26.9,32.01,NE,36,0.0,0.0,68,0.00,NA,NA,-99.99,wxupload 3.4,2013-02-16 02:00:00,
2013-02-15 21:06:00,36.7,27.1,32.01,NE,36,0.0,0.0,68,0.00,NA,NA,-99.99,wxupload 3.4,2013-02-16 02:06:00,
2013-02-15 21:12:00,36.7,27.1,32.01,NNE,29,0.0,0.0,68,0.00,NA,NA,-99.99,wxupload 3.4,2013-02-16 02:12:00,
2013-02-15 21:18:00,36.5,26.9,32.01,NNW,340,0.0,0.0,68,0.00,NA,NA,-99.99,wxupload 3.4,2013-02-16 02:18:00,
2013-02-15 21:24:00,36.5,26.9,32.01,WNW,293,0.0,0.0,68,0.00,NA,NA,-99.99,wxupload 3.4,2013-02-16 02:24:00,
2013-02-15 21:30:00,36.7,27.1,32.01,WNW,287,0.0,0.0,68,0.00,NA,NA,-99.99,wxupload 3.4,2013-02-16 02:30:00,
2013-02-15 21:36:00,36.7,26.8,32.01,NNW,341,0.0,0.0,67,0.00,NA,NA,-99.99,wxupload 3.4,2013-02-16 02:36:00,
2013-02-15 21:42:00,36.7,26.4,32.01,NW,322,0.0,2.0,66,0.00,NA,NA,-99.99,wxupload 3.4,2013-02-16 02:42:00,
2013-02-15 21:48:00,36.7,26.0,32.01,NW,311,0.0,0.0,65,0.00,NA,NA,-99.99,wxupload 3.4,2013-02-16 02:48:00,
2013-02-15 21:54:00,36.7,26.0,32.01,North,357,0.0,0.0,65,0.00,NA,NA,-99.99,wxupload 3.4,2013-02-16 02:54:00,
2013-02-15 22:00:00,36.5,25.5,32.01,NNE,23,0.0,0.0,64,0.00,NA,NA,-99.99,wxupload 3.4,2013-02-16 03:00:00,
2013-02-15 22:06:00,36.7,25.3,32.04,North,6,0.0,0.0,63,0.00,NA,NA,-99.99,wxupload 3.4,2013-02-16 03:06:00,
2013-02-15 22:12:00,36.5,24.7,32.04,NNW,327,0.0,0.0,62,0.00,NA,NA,-99.99,wxupload 3.4,2013-02-16 03:12:00,
2013-02-15 22:18:00,36.3,24.2,32.04,North,5,0.0,0.0,61,0.00,NA,NA,-99.99,wxupload 3.4,2013-02-16 03:18:00,
2013-02-15 22:24:00,36.3,23.8,32.04,NE,46,0.0,3.0,60,0.00,NA,NA,-99.99,wxupload 3.4,2013-02-16 03:24:00,
2013-02-15 22:30:00,36.5,22.7,32.04,NNE,17,0.0,0.0,57,0.00,NA,NA,-99.99,wxupload 3.4,2013-02-16 03:30:00,
2013-02-15 22:36:00,36.3,22.1,32.04,NNE,32,0.0,0.0,56,0.00,NA,NA,-99.99,wxupload 3.4,2013-02-16 03:36:00,
2013-02-15 22:42:00,36.1,21.9,32.04,NNE,32,0.0,0.0,56,0.00,NA,NA,-99.99,wxupload 3.4,2013-02-16 03:42:00,
2013-02-15 22:48:00,35.6,21.4,32.04,NNE,32,0.0,0.0,56,0.00,NA,NA,-99.99,wxupload 3.4,2013-02-16 03:48:00,
2013-02-15 22:54:00,35.2,21.1,32.04,NNE,32,0.0,0.0,56,0.00,NA,NA,-99.99,wxupload 3.4,2013-02-16 03:54:00,
2013-02-15 23:00:00,35.1,21.3,32.04,NNE,32,0.0,0.0,57,0.00,NA,NA,-99.99,wxupload 3.4,2013-02-16 04:00:00,
2013-02-15 23:06:00,35.2,21.5,32.01,ESE,108,0.0,0.0,57,0.00,NA,NA,-99.99,wxupload 3.4,2013-02-16 04:06:00,
2013-02-15 23:12:00,35.4,21.7,32.01,ESE,108,0.0,0.0,57,0.00,NA,NA,-99.99,wxupload 3.4,2013-02-16 04:12:00,
2013-02-15 23:18:00,35.2,21.9,32.01,ESE,108,0.0,0.0,58,0.00,NA,NA,-99.99,wxupload 3.4,2013-02-16 04:18:00,
2013-02-15 23:24:00,35.2,21.9,32.01,ESE,108,0.0,0.0,58,0.00,NA,NA,-99.99,wxupload 3.4,2013-02-16 04:24:00,
2013-02-15 23:30:00,35.1,21.8,32.01,ESE,108,0.0,0.0,58,0.00,NA,NA,-99.99,wxupload 3.4,2013-02-16 04:30:00,
2013-02-15 23:36:00,34.7,21.4,32.01,ESE,109,0.0,0.0,58,0.00,NA,NA,-99.99,wxupload 3.4,2013-02-16 04:36:00,
2013-02-15 23:42:00,34.3,21.1,32.01,ESE,109,0.0,0.0,58,0.00,NA,NA,-99.99,wxupload 3.4,2013-02-16 04:42:00,
2013-02-15 23:48:00,33.8,20.6,32.01,ESE,109,0.0,0.0,58,0.00,NA,NA,-99.99,wxupload 3.4,2013-02-16 04:48:00,
2013-02-15 23:54:00,33.4,20.6,32.01,ESE,109,0.0,0.0,59,0.00,NA,NA,-99.99,wxupload 3.4,2013-02-16 04:54:00,